首页
METAR-TAF:

METAR-TAF

机场 :

明尼阿波利斯, 明尼蘇達州, 美国

明尼阿波利斯-圣保罗国际机场

纬度: 44-52-59N, 经度: 093-13-44W, 海拔: 256米

当前天气观测

该预报发布于9分钟前的04:53 UTC
风速7节,风向西北
温度 9°C
湿度 46%
气压 1014 hPa
能見度: 16.1公里
天空无云

METAR: KMSP 270453Z 32007KT 10SM CLR 09/M02 A2993 RMK AO2 SLP138 T00891022

时间: 00:02 (05:02 UTC)

预报

该预报发布于2小时和9分钟前的02:53 UTC
预报有效从27日的 03点(UTC)到 28日的 06点(UTC)
风速7节,风向
能見度: 10公里
天空无云
从 27日的 0600点(UTC)
风速5节,风向西
能見度: 10公里
天空无云
从 27日的 0900点(UTC)
风速7节,风向西南
能見度: 10公里
多云层高于8000英尺
从 27日的 1300点(UTC)
风速12节,风向西,有时为20节阵风
能見度: 10公里
散云层高于8000英尺
从 27日的 1500点(UTC)
风速18节,风向西北,有时为28节阵风
能見度: 10公里
天空无云
从 27日的 1900点(UTC)
风速21节,风向西北,有时为32节阵风
能見度: 10公里
多云层高于5000英尺
从 28日的 0100点(UTC)
风速15节,风向,有时为22节阵风
能見度: 10公里
散云层高于5000英尺

TAF: KMSP 270253Z 2703/2806 35007KT P6SM SKC FM270600 26005KT P6SM SKC FM270900 22007KT P6SM BKN080 FM271300 26012G20KT P6SM SCT080 FM271500 31018G28KT P6SM SKC FM271900 32021G32KT P6SM BKN050 FM280100 35015G22KT P6SM SCT050

超过4000个机场的气象观测和天气预报(METAR&TAF报告)。

可查询的气象台以黄色和红色小点在地图上表示。

将鼠标移到小点上方,可查看气象台名称。

然后点击查看天气观测和预报。

如需切换地图:点击带黑十字的绿色按钮放大地图;点击带横线的绿色按钮缩小地图;或者点击绿色箭头查看邻近地区的地图。


METAR-TAF: